createdAt,value
2018-01-26T00:02:00.677Z,2.90
2018-01-26T00:04:27.556Z,2.90
2018-01-26T00:06:54.480Z,2.60
2018-01-26T00:09:21.418Z,1.80
2018-01-26T00:11:48.363Z,1.77
2018-01-26T00:14:15.308Z,1.87
2018-01-26T00:16:42.252Z,2.27
2018-01-26T00:19:09.108Z,2.03
2018-01-26T00:21:36.046Z,2.37
2018-01-26T00:24:02.999Z,2.13
2018-01-26T00:26:29.941Z,3.03
2018-01-26T00:28:56.817Z,2.30
2018-01-26T00:31:23.733Z,3.13
2018-01-26T00:33:50.679Z,3.07
2018-01-26T00:36:17.620Z,4.03
2018-01-26T00:38:44.573Z,5.23
2018-01-26T00:41:11.429Z,5.00
2018-01-26T00:43:38.364Z,4.00
2018-01-26T00:46:05.231Z,3.73
2018-01-26T00:48:32.076Z,1.90
2018-01-26T00:50:58.999Z,2.20
2018-01-26T00:53:25.852Z,2.50
2018-01-26T00:55:52.789Z,2.43
2018-01-26T00:58:19.632Z,1.60
2018-01-26T01:00:46.581Z,1.40
2018-01-26T01:03:13.428Z,1.83
2018-01-26T01:05:40.365Z,1.90
2018-01-26T01:08:07.308Z,2.20
2018-01-26T01:10:34.161Z,2.50
2018-01-26T01:13:01.100Z,1.80
2018-01-26T01:15:28.049Z,1.70
2018-01-26T01:17:54.997Z,1.87
2018-01-26T01:20:21.940Z,1.53
2018-01-26T01:22:48.889Z,1.63
2018-01-26T01:25:15.839Z,1.60
2018-01-26T01:27:42.676Z,1.80
2018-01-26T01:30:09.568Z,1.30
2018-01-26T01:32:36.468Z,1.37
2018-01-26T01:35:03.421Z,2.10
2018-01-26T01:37:30.364Z,1.80
2018-01-26T01:39:57.212Z,1.90
2018-01-26T01:42:24.072Z,3.10
2018-01-26T01:44:51.021Z,1.33
2018-01-26T01:47:17.946Z,2.60
2018-01-26T01:49:44.895Z,1.70
2018-01-26T01:52:11.840Z,1.50
2018-01-26T01:54:38.681Z,1.60
2018-01-26T01:57:05.548Z,1.50
2018-01-26T01:59:32.384Z,1.33
2018-01-26T02:01:59.316Z,1.50
2018-01-26T02:04:26.249Z,1.20
2018-01-26T02:06:53.120Z,0.90
2018-01-26T02:09:19.948Z,1.60
2018-01-26T02:11:46.898Z,1.30
2018-01-26T02:14:13.748Z,1.90
2018-01-26T02:16:40.684Z,1.13
2018-01-26T02:19:07.633Z,1.13
2018-01-26T02:21:34.584Z,0.90
2018-01-26T02:24:13.435Z,0.77
2018-01-26T02:26:40.301Z,0.97
2018-01-26T02:29:07.608Z,1.43
2018-01-26T02:31:34.464Z,1.07
2018-01-26T02:34:01.404Z,0.87
2018-01-26T02:36:28.271Z,1.43
2018-01-26T02:38:55.189Z,1.33
2018-01-26T02:41:22.148Z,1.17
2018-01-26T02:43:48.986Z,1.00
2018-01-26T02:46:15.841Z,0.80
2018-01-26T02:48:42.772Z,0.83
2018-01-26T02:51:09.713Z,1.20
2018-01-26T02:53:36.655Z,0.60
2018-01-26T02:56:03.705Z,0.80
2018-01-26T02:58:30.545Z,1.00
2018-01-26T03:00:57.403Z,1.00
2018-01-26T03:03:24.340Z,0.80
2018-01-26T03:05:51.284Z,1.80
2018-01-26T03:08:18.134Z,0.90
2018-01-26T03:10:45.087Z,0.97
2018-01-26T03:13:12.029Z,1.00
2018-01-26T03:15:38.973Z,0.93
2018-01-26T03:18:05.823Z,1.43
2018-01-26T03:20:32.763Z,1.00
2018-01-26T03:22:59.713Z,1.27
2018-01-26T03:25:26.568Z,0.93
2018-01-26T03:27:53.508Z,0.80
2018-01-26T03:30:20.373Z,0.80
2018-01-26T03:32:47.232Z,0.83
2018-01-26T03:35:14.064Z,1.30
2018-01-26T03:37:40.924Z,2.53
2018-01-26T03:40:08.268Z,0.83
2018-01-26T03:42:35.176Z,1.13
2018-01-26T03:45:02.134Z,2.07
2018-01-26T03:47:28.978Z,2.33
2018-01-26T03:49:55.924Z,1.70
2018-01-26T03:52:22.777Z,1.10
2018-01-26T03:54:49.658Z,1.10
2018-01-26T03:57:16.965Z,0.80
2018-01-26T03:59:43.906Z,0.90
2018-01-26T04:02:10.788Z,1.70
2018-01-26T04:04:37.697Z,0.97
2018-01-26T04:07:04.545Z,1.00
2018-01-26T04:09:31.494Z,1.10
2018-01-26T04:11:58.436Z,1.03
2018-01-26T04:14:25.380Z,1.10
2018-01-26T04:16:52.324Z,1.93
2018-01-26T04:19:19.201Z,1.00
2018-01-26T04:21:46.053Z,1.33
2018-01-26T04:26:57.229Z,0.90
2018-01-26T04:29:24.102Z,1.67
2018-01-26T04:31:51.010Z,1.13
2018-01-26T04:34:17.855Z,1.57
2018-01-26T04:36:44.707Z,1.17
2018-01-26T04:39:11.650Z,1.60
2018-01-26T04:41:38.518Z,1.10
2018-01-26T04:44:05.361Z,1.70
2018-01-26T04:46:32.272Z,1.70
2018-01-26T04:48:59.141Z,3.77
2018-01-26T04:51:25.994Z,1.60
2018-01-26T04:53:52.840Z,1.80
2018-01-26T04:56:19.747Z,2.10
2018-01-26T04:58:46.596Z,1.10
2018-01-26T05:01:13.545Z,1.47
2018-01-26T05:03:40.489Z,1.80
2018-01-26T05:06:07.437Z,2.00
2018-01-26T05:08:34.280Z,1.60
2018-01-26T05:11:01.145Z,2.83
2018-01-26T05:13:28.068Z,1.30
2018-01-26T05:15:54.929Z,1.40
2018-01-26T05:18:21.870Z,4.00
2018-01-26T05:20:48.813Z,1.40
2018-01-26T05:23:15.762Z,2.77
2018-01-26T05:25:42.705Z,1.10
2018-01-26T05:28:09.644Z,1.70
2018-01-26T05:30:36.593Z,1.57
2018-01-26T05:33:03.545Z,2.93
2018-01-26T05:35:30.498Z,2.00
2018-01-26T05:37:57.438Z,2.33
2018-01-26T05:40:24.286Z,4.10
2018-01-26T05:42:51.161Z,1.83
2018-01-26T05:45:18.065Z,1.80
2018-01-26T05:47:45.014Z,1.60
2018-01-26T05:50:11.909Z,1.70
2018-01-26T05:52:39.211Z,1.80
2018-01-26T05:55:06.159Z,1.20
2018-01-26T05:57:33.029Z,2.00
2018-01-26T06:00:00.026Z,2.00
2018-01-26T06:02:26.833Z,1.87
2018-01-26T06:04:54.028Z,6.00
2018-01-26T06:07:20.930Z,1.80
2018-01-26T06:09:47.741Z,2.03
2018-01-26T06:12:14.597Z,2.37
2018-01-26T06:14:41.569Z,2.13
2018-01-26T06:17:08.876Z,2.80
2018-01-26T06:19:35.837Z,2.67
2018-01-26T06:22:02.683Z,2.60
2018-01-26T06:24:30.020Z,2.90
2018-01-26T06:26:56.836Z,4.67
2018-01-26T06:29:24.133Z,4.90
2018-01-26T06:31:51.070Z,2.93
2018-01-26T06:34:18.012Z,3.87
2018-01-26T06:36:44.861Z,3.10
2018-01-26T06:39:11.732Z,4.60
2018-01-26T06:41:38.694Z,3.30
2018-01-26T06:44:05.604Z,3.30
2018-01-26T06:46:32.449Z,2.53
2018-01-26T06:48:59.308Z,4.27
2018-01-26T06:51:26.232Z,2.77
2018-01-26T06:53:53.084Z,4.53
2018-01-26T06:56:19.927Z,6.40
2018-01-26T06:58:46.864Z,8.57
2018-01-26T07:01:13.821Z,13.77
2018-01-26T07:03:40.669Z,9.73
2018-01-26T07:06:07.599Z,9.63
2018-01-26T07:08:34.445Z,7.90
2018-01-26T07:11:01.392Z,6.30
2018-01-26T07:13:28.241Z,5.50
2018-01-26T07:15:55.128Z,5.63
2018-01-26T07:18:21.962Z,4.73
2018-01-26T07:20:48.805Z,5.67
2018-01-26T07:23:15.728Z,6.07
2018-01-26T07:25:42.656Z,7.33
2018-01-26T07:28:09.513Z,5.53
2018-01-26T07:30:36.390Z,5.60
2018-01-26T07:33:03.238Z,8.37
2018-01-26T07:35:30.141Z,6.20
2018-01-26T07:37:57.093Z,5.93
2018-01-26T07:40:24.043Z,7.63
2018-01-26T07:42:50.981Z,4.73
2018-01-26T07:45:17.850Z,4.40
2018-01-26T07:47:44.714Z,5.63
2018-01-26T07:50:11.711Z,3.97
2018-01-26T07:52:38.524Z,5.97
2018-01-26T07:55:05.817Z,5.40
2018-01-26T07:57:32.753Z,5.80
2018-01-26T07:59:59.737Z,6.90
2018-01-26T08:02:26.664Z,6.50
2018-01-26T08:04:53.500Z,6.40
2018-01-26T08:07:20.453Z,6.57
2018-01-26T08:09:47.387Z,6.17
2018-01-26T08:12:14.228Z,6.97
2018-01-26T08:14:41.189Z,7.73
2018-01-26T08:17:08.014Z,5.83
2018-01-26T08:19:35.068Z,7.47
2018-01-26T08:22:01.920Z,6.83
2018-01-26T08:24:28.868Z,7.10
2018-01-26T08:26:55.741Z,4.93
2018-01-26T08:29:22.583Z,5.10
2018-01-26T08:31:49.505Z,4.60
2018-01-26T08:34:16.440Z,6.17
2018-01-26T08:36:43.386Z,4.40
2018-01-26T08:39:10.229Z,4.87
2018-01-26T08:41:37.360Z,5.50
2018-01-26T08:44:04.335Z,4.47
2018-01-26T08:46:31.280Z,4.87
2018-01-26T08:48:58.132Z,5.07
2018-01-26T08:51:25.077Z,4.47
2018-01-26T08:53:51.918Z,5.63
2018-01-26T08:56:18.760Z,5.83
2018-01-26T08:58:45.705Z,7.00
2018-01-26T09:01:12.569Z,3.90
2018-01-26T09:03:39.404Z,3.83
2018-01-26T09:06:06.375Z,6.80
2018-01-26T09:08:33.202Z,5.33
2018-01-26T09:11:00.141Z,4.07
2018-01-26T09:13:27.077Z,4.30
2018-01-26T09:15:53.921Z,4.10
2018-01-26T09:18:20.869Z,4.10
2018-01-26T09:20:47.737Z,4.30
2018-01-26T09:23:14.666Z,3.50
2018-01-26T09:25:41.618Z,3.57
2018-01-26T09:28:08.543Z,4.00
2018-01-26T09:30:35.398Z,4.07
2018-01-26T09:33:02.271Z,4.63
2018-01-26T09:35:29.113Z,4.43
2018-01-26T09:37:56.038Z,4.77
2018-01-26T09:40:22.877Z,4.53
2018-01-26T09:42:49.773Z,4.00
2018-01-26T09:45:16.674Z,5.57
2018-01-26T09:47:43.518Z,4.30
2018-01-26T09:50:10.381Z,3.60
2018-01-26T09:52:37.308Z,3.83
2018-01-26T09:55:04.244Z,4.03
2018-01-26T09:57:31.089Z,4.37
2018-01-26T09:59:57.937Z,4.40
2018-01-26T10:02:24.885Z,4.80
2018-01-26T10:04:51.733Z,3.60
2018-01-26T10:07:18.576Z,3.70
2018-01-26T10:09:45.516Z,3.60
2018-01-26T10:12:12.400Z,3.77
2018-01-26T10:14:39.325Z,3.80
2018-01-26T10:17:06.168Z,3.60
2018-01-26T10:19:33.102Z,4.37
2018-01-26T10:22:00.040Z,4.27
2018-01-26T10:24:26.885Z,4.20
2018-01-26T10:26:53.759Z,5.73
2018-01-26T10:29:20.595Z,5.10
2018-01-26T10:31:47.512Z,4.90
2018-01-26T10:34:14.733Z,4.80
2018-01-26T10:36:42.033Z,4.90
2018-01-26T10:39:08.894Z,5.50
2018-01-26T10:41:35.821Z,6.33
2018-01-26T10:44:02.687Z,4.60
2018-01-26T10:46:29.603Z,4.50
2018-01-26T10:48:56.451Z,5.10
2018-01-26T10:51:23.303Z,5.27
2018-01-26T10:53:50.249Z,3.40
2018-01-26T10:56:17.083Z,3.17
2018-01-26T10:58:44.129Z,3.07
2018-01-26T11:01:11.362Z,4.63
2018-01-26T11:03:38.635Z,4.00
2018-01-26T11:06:05.582Z,2.50
2018-01-26T11:08:32.422Z,3.30
2018-01-26T11:10:59.289Z,2.87
2018-01-26T11:13:26.229Z,3.40
2018-01-26T11:15:53.173Z,2.83
2018-01-26T11:18:20.121Z,3.33
2018-01-26T11:20:47.159Z,2.90
2018-01-26T11:23:14.401Z,4.77
2018-01-26T11:25:41.872Z,3.67
2018-01-26T11:28:09.108Z,5.60
2018-01-26T11:30:36.880Z,4.67
2018-01-26T11:33:03.724Z,3.27
2018-01-26T11:35:30.583Z,3.03
2018-01-26T11:37:57.533Z,5.47
2018-01-26T11:40:24.481Z,10.53
2018-01-26T11:42:51.428Z,4.73
2018-01-26T11:45:18.363Z,2.80
2018-01-26T11:47:45.316Z,3.67
2018-01-26T11:50:12.147Z,3.33
2018-01-26T11:52:39.022Z,5.47
2018-01-26T11:55:05.868Z,3.43
2018-01-26T11:57:32.727Z,3.67
2018-01-26T11:59:59.568Z,5.77
2018-01-26T12:02:26.402Z,3.93
2018-01-26T12:04:53.256Z,3.77
2018-01-26T12:07:20.172Z,4.03
2018-01-26T12:09:47.044Z,5.93
2018-01-26T12:12:14.058Z,4.43
2018-01-26T12:14:40.924Z,6.60
2018-01-26T12:17:07.812Z,3.07
2018-01-26T12:19:35.045Z,2.33
2018-01-26T12:22:01.956Z,3.43
2018-01-26T12:24:28.834Z,3.80
2018-01-26T12:26:55.856Z,3.77
2018-01-26T12:29:22.893Z,3.93
2018-01-26T12:31:49.741Z,3.63
2018-01-26T12:34:16.684Z,3.87
2018-01-26T12:36:43.632Z,6.90
2018-01-26T12:39:10.587Z,6.17
2018-01-26T12:41:37.642Z,3.80
2018-01-26T12:44:04.477Z,4.20
2018-01-26T12:46:31.338Z,3.70
2018-01-26T12:48:58.362Z,4.50
2018-01-26T12:51:25.412Z,3.03
2018-01-26T12:53:52.369Z,4.50
2018-01-26T12:56:19.204Z,4.80
2018-01-26T12:58:46.076Z,3.57
2018-01-26T13:01:13.002Z,4.03
2018-01-26T13:03:39.944Z,3.93
2018-01-26T13:06:06.796Z,4.43
2018-01-26T13:08:33.729Z,5.13
2018-01-26T13:11:00.716Z,3.90
2018-01-26T13:13:27.554Z,3.87
2018-01-26T13:15:54.409Z,4.47
2018-01-26T13:18:21.257Z,3.73
2018-01-26T13:20:48.170Z,6.67
2018-01-26T13:23:15.198Z,3.93
2018-01-26T13:25:42.449Z,4.20
2018-01-26T13:28:09.312Z,5.43
2018-01-26T13:30:36.253Z,3.93
2018-01-26T13:33:03.126Z,5.03
2018-01-26T13:35:29.951Z,3.93
2018-01-26T13:37:56.884Z,3.63
2018-01-26T13:40:23.748Z,5.73
2018-01-26T13:42:50.701Z,3.10
2018-01-26T13:45:17.622Z,6.03
2018-01-26T13:47:44.493Z,6.30
2018-01-26T13:50:11.346Z,5.57
2018-01-26T13:52:38.483Z,5.40
2018-01-26T13:55:05.407Z,5.37
2018-01-26T13:57:32.449Z,6.10
2018-01-26T13:59:59.305Z,5.30
2018-01-26T14:02:26.149Z,4.93
2018-01-26T14:04:53.087Z,7.27
2018-01-26T14:07:19.941Z,8.10
2018-01-26T14:09:46.976Z,8.77
2018-01-26T14:12:14.241Z,5.10
2018-01-26T14:14:41.213Z,6.70
2018-01-26T14:17:08.129Z,5.40
2018-01-26T14:19:35.077Z,5.20
2018-01-26T14:22:01.988Z,5.00
2018-01-26T14:24:28.867Z,5.57
2018-01-26T14:26:55.912Z,5.73
2018-01-26T14:29:22.852Z,5.07
2018-01-26T14:31:49.686Z,5.20
2018-01-26T14:34:16.656Z,6.70
2018-01-26T14:36:43.588Z,7.80
2018-01-26T14:39:10.540Z,8.20
2018-01-26T14:41:37.382Z,5.83
2018-01-26T14:44:04.331Z,7.43
2018-01-26T14:46:31.302Z,6.03
2018-01-26T14:48:58.224Z,6.87
2018-01-26T14:51:25.103Z,6.33
2018-01-26T14:53:51.935Z,7.47
2018-01-26T14:56:18.783Z,7.00
2018-01-26T14:58:45.850Z,10.43
2018-01-26T15:01:12.835Z,7.07
2018-01-26T15:03:39.918Z,7.53
2018-01-26T15:06:06.977Z,6.77
2018-01-26T15:08:33.930Z,10.43
2018-01-26T15:11:00.948Z,6.70
2018-01-26T15:13:27.767Z,7.70
2018-01-26T15:15:54.739Z,7.43
2018-01-26T15:18:21.590Z,8.63
2018-01-26T15:20:48.527Z,6.77
2018-01-26T15:23:15.368Z,8.33
2018-01-26T15:25:42.315Z,5.73
2018-01-26T15:28:09.162Z,8.43
2018-01-26T15:30:36.018Z,6.40
2018-01-26T15:33:02.851Z,6.77
2018-01-26T15:35:29.717Z,6.37
2018-01-26T15:37:56.555Z,6.70
2018-01-26T15:40:23.490Z,7.03
2018-01-26T15:42:50.379Z,6.90
2018-01-26T15:45:17.276Z,6.90
2018-01-26T15:47:44.229Z,5.30
2018-01-26T15:50:11.084Z,11.37
2018-01-26T15:52:37.931Z,7.40
2018-01-26T15:55:04.795Z,8.03
2018-01-26T15:57:31.635Z,7.37
2018-01-26T15:59:58.543Z,7.30
2018-01-26T16:02:25.457Z,7.60
2018-01-26T16:04:52.690Z,7.50
2018-01-26T16:07:19.597Z,7.93
2018-01-26T16:09:46.453Z,8.63
2018-01-26T16:12:13.288Z,7.03
2018-01-26T16:14:40.227Z,7.83
2018-01-26T16:17:07.064Z,9.10
2018-01-26T16:19:33.898Z,7.50
2018-01-26T16:22:00.855Z,7.10
2018-01-26T16:24:27.699Z,7.13
2018-01-26T16:26:54.563Z,7.63
2018-01-26T16:29:21.407Z,8.23
2018-01-26T16:31:48.331Z,7.80
2018-01-26T16:34:15.167Z,10.63
2018-01-26T16:36:42.037Z,7.70
2018-01-26T16:39:08.880Z,8.47
2018-01-26T16:41:35.719Z,8.00
2018-01-26T16:44:02.576Z,9.70
2018-01-26T16:46:29.416Z,8.10
2018-01-26T16:48:56.263Z,8.10
2018-01-26T16:51:23.119Z,10.67
2018-01-26T16:53:49.983Z,11.63
2018-01-26T16:56:16.828Z,13.43
2018-01-26T16:58:43.684Z,20.33
2018-01-26T17:01:10.959Z,20.53
2018-01-26T17:03:38.329Z,13.23
2018-01-26T17:06:05.555Z,12.40
2018-01-26T17:08:32.792Z,14.90
2018-01-26T17:10:59.687Z,15.57
2018-01-26T17:13:26.528Z,12.53
2018-01-26T17:15:53.481Z,11.90
2018-01-26T17:18:20.418Z,12.30
2018-01-26T17:20:47.268Z,10.97
2018-01-26T17:23:14.107Z,9.70
2018-01-26T17:25:40.975Z,10.43
2018-01-26T17:28:07.900Z,10.23
2018-01-26T17:30:34.740Z,10.73
2018-01-26T17:33:01.692Z,10.10
2018-01-26T17:35:28.660Z,12.00
2018-01-26T17:37:55.584Z,13.63
2018-01-26T17:40:22.497Z,9.67
2018-01-26T17:42:49.795Z,11.33
2018-01-26T17:45:16.671Z,12.57
2018-01-26T17:47:43.515Z,11.67
2018-01-26T17:50:10.415Z,11.87
2018-01-26T17:52:37.256Z,11.13
2018-01-26T17:55:04.203Z,10.10
2018-01-26T17:57:31.060Z,11.60
2018-01-26T17:59:57.999Z,12.00
2018-01-26T18:02:24.948Z,10.90
2018-01-26T18:04:51.790Z,11.50
2018-01-26T18:07:18.632Z,11.90
2018-01-26T18:09:45.483Z,13.33
2018-01-26T18:12:12.344Z,14.37
2018-01-26T18:14:39.271Z,17.07
2018-01-26T18:17:06.214Z,18.90
2018-01-26T18:19:33.055Z,16.40
2018-01-26T18:21:59.945Z,13.10
2018-01-26T18:24:26.796Z,13.57
2018-01-26T18:26:53.643Z,12.07
2018-01-26T18:29:20.944Z,11.63
2018-01-26T18:31:47.888Z,11.70
2018-01-26T18:34:14.728Z,10.97
2018-01-26T18:36:41.587Z,13.10
2018-01-26T18:39:08.466Z,13.53
2018-01-26T18:41:35.376Z,12.70
2018-01-26T18:44:02.313Z,18.47
2018-01-26T18:46:29.261Z,20.20
2018-01-26T18:48:56.081Z,19.87
2018-01-26T18:51:23.363Z,22.90
2018-01-26T18:53:50.299Z,27.67
2018-01-26T18:56:17.131Z,31.77
2018-01-26T18:58:44.103Z,14.17
2018-01-26T19:01:10.936Z,15.17
2018-01-26T19:03:37.885Z,12.13
2018-01-26T19:06:04.737Z,11.83
2018-01-26T19:08:31.610Z,11.93
2018-01-26T19:10:58.523Z,10.93
2018-01-26T19:13:25.463Z,10.00
2018-01-26T19:15:52.316Z,8.97
2018-01-26T19:18:19.257Z,9.10
2018-01-26T19:20:46.074Z,8.77
2018-01-26T19:23:12.947Z,8.50
2018-01-26T19:25:39.795Z,9.80
2018-01-26T19:28:06.632Z,8.07
2018-01-26T19:30:33.479Z,9.00
2018-01-26T19:33:00.313Z,9.20
2018-01-26T19:35:27.270Z,10.67
2018-01-26T19:37:54.110Z,9.20
2018-01-26T19:40:20.964Z,8.10
2018-01-26T19:42:47.899Z,8.83
2018-01-26T19:45:14.849Z,9.40
2018-01-26T19:47:41.898Z,8.47
2018-01-26T19:50:09.151Z,7.87
2018-01-26T19:52:36.005Z,7.70
2018-01-26T19:55:02.842Z,9.30
2018-01-26T19:57:29.714Z,8.10
2018-01-26T19:59:56.645Z,9.10
2018-01-26T20:02:23.473Z,12.90
2018-01-26T20:05:02.055Z,10.27
2018-01-26T20:07:29.279Z,11.83
2018-01-26T20:09:56.195Z,15.77
2018-01-26T20:12:23.047Z,15.57
2018-01-26T20:14:49.878Z,10.33
2018-01-26T20:17:16.827Z,9.20
2018-01-26T20:19:43.662Z,8.80
2018-01-26T20:22:10.539Z,11.90
2018-01-26T20:24:37.474Z,11.23
2018-01-26T20:27:04.314Z,11.77
2018-01-26T20:29:31.223Z,12.30
2018-01-26T20:31:58.614Z,12.07
2018-01-26T20:34:25.460Z,12.03
2018-01-26T20:36:52.406Z,12.67
2018-01-26T20:39:19.262Z,19.33
2018-01-26T20:41:46.187Z,15.50
2018-01-26T20:44:13.139Z,12.67
2018-01-26T20:46:40.086Z,11.90
2018-01-26T20:49:06.941Z,10.60
2018-01-26T20:51:33.779Z,9.37
2018-01-26T20:54:00.643Z,13.33
2018-01-26T20:56:27.568Z,12.70
2018-01-26T20:58:54.424Z,18.60
2018-01-26T21:01:21.359Z,21.90
2018-01-26T21:03:48.212Z,17.90
2018-01-26T21:06:15.047Z,13.33
2018-01-26T21:08:41.991Z,11.33
2018-01-26T21:11:08.936Z,8.27
2018-01-26T21:13:35.772Z,8.87
2018-01-26T21:16:02.632Z,9.03
2018-01-26T21:18:29.573Z,9.57
2018-01-26T21:20:56.520Z,9.00
2018-01-26T21:23:23.384Z,10.00
2018-01-26T21:25:50.218Z,12.90
2018-01-26T21:28:17.147Z,9.57
2018-01-26T21:30:44.100Z,13.07
2018-01-26T21:33:11.200Z,9.30
2018-01-26T21:35:37.984Z,13.37
2018-01-26T21:38:04.839Z,9.80
2018-01-26T21:40:31.780Z,11.07
2018-01-26T21:42:58.719Z,11.80
2018-01-26T21:45:25.564Z,10.70
2018-01-26T21:47:52.420Z,12.87
2018-01-26T21:50:19.352Z,9.70
2018-01-26T21:52:46.212Z,9.83
2018-01-26T21:55:13.072Z,11.77
2018-01-26T21:57:39.931Z,11.40
2018-01-26T22:00:06.848Z,11.97
2018-01-26T22:02:33.687Z,10.67
2018-01-26T22:05:00.636Z,10.70
2018-01-26T22:07:27.483Z,12.13
2018-01-26T22:09:54.343Z,10.60
2018-01-26T22:12:21.267Z,11.00
2018-01-26T22:14:48.099Z,10.50
2018-01-26T22:17:15.158Z,10.23
2018-01-26T22:19:42.100Z,10.97
2018-01-26T22:22:08.936Z,13.63
2018-01-26T22:24:35.797Z,10.63
2018-01-26T22:27:02.747Z,11.17
2018-01-26T22:29:29.683Z,12.97
2018-01-26T22:31:56.656Z,11.60
2018-01-26T22:34:23.576Z,11.50
2018-01-26T22:36:50.438Z,12.60
2018-01-26T22:39:17.283Z,20.10
2018-01-26T22:41:44.148Z,17.80
2018-01-26T22:44:11.087Z,13.67
2018-01-26T22:46:38.013Z,14.53
2018-01-26T22:49:04.954Z,10.40
2018-01-26T22:51:31.900Z,12.57
2018-01-26T22:53:58.842Z,11.23
2018-01-26T22:56:25.686Z,11.17
2018-01-26T22:58:52.556Z,10.47
2018-01-26T23:01:19.475Z,11.40
2018-01-26T23:03:46.318Z,15.27
2018-01-26T23:06:13.262Z,11.00
2018-01-26T23:08:40.116Z,12.03
2018-01-26T23:11:06.959Z,13.50
2018-01-26T23:13:33.931Z,10.63
2018-01-26T23:16:00.881Z,12.17
2018-01-26T23:18:27.724Z,11.60
2018-01-26T23:20:54.580Z,13.00
2018-01-26T23:23:21.416Z,10.33
2018-01-26T23:25:48.329Z,12.80
2018-01-26T23:28:15.187Z,14.70
2018-01-26T23:30:42.114Z,11.80
2018-01-26T23:33:08.963Z,12.60
2018-01-26T23:35:35.908Z,12.93
2018-01-26T23:38:02.860Z,13.83
2018-01-26T23:40:29.804Z,12.83
2018-01-26T23:42:56.739Z,12.00
2018-01-26T23:45:23.688Z,12.10
2018-01-26T23:47:50.518Z,11.97
2018-01-26T23:50:17.369Z,12.30
2018-01-26T23:52:44.236Z,12.07
2018-01-26T23:55:11.171Z,11.83
2018-01-26T23:57:38.111Z,12.53
